Terminal Aerodrome Forecast
Issued by NWS Tulsa, OK

Home | Current Version | Previous Version | Text Only | Print | Product List | Glossary On
Versions: 1 2 3 4 5 6 7 8 9 10 11 12 13 14 15 16 17 18 19 20 21 22 23 24 25 26 27 28 29 30 31 32 33 34 35 36 37 38 39 40 41 42 43
000
FTUS44 KTSA 221120
TAFTUL
TAF
KTUL 221120Z 2212/2312 16012KT P6SM SCT040 WS020/19040KT
     FM221500 17020G30KT P6SM SCT050 BKN250
     FM230000 17013KT P6SM SCT040
     FM230800 33016G24KT 5SM -SHRA BR OVC025
      TEMPO 2308/2310 3SM TSRA BR OVC015CB=

USA.gov is the U.S. government's official web portal to all federal, state and local government web resources and services.